sensor_id;sensor_type;location;lat;lon;timestamp;temperature;humidity
1592;DHT22;789;51.612;7.510;2024-03-29T00:01:15;9.70;1.00
1592;DHT22;789;51.612;7.510;2024-03-29T00:03:41;9.60;1.00
1592;DHT22;789;51.612;7.510;2024-03-29T00:06:07;10.20;1.00
1592;DHT22;789;51.612;7.510;2024-03-29T00:08:33;9.60;1.00
1592;DHT22;789;51.612;7.510;2024-03-29T00:10:59;9.60;1.00
1592;DHT22;789;51.612;7.510;2024-03-29T00:13:24;9.60;1.00
1592;DHT22;789;51.612;7.510;2024-03-29T00:15:50;9.90;1.00
1592;DHT22;789;51.612;7.510;2024-03-29T00:18:17;9.70;1.00
1592;DHT22;789;51.612;7.510;2024-03-29T00:20:43;9.70;1.00
1592;DHT22;789;51.612;7.510;2024-03-29T00:23:09;9.70;1.00
1592;DHT22;789;51.612;7.510;2024-03-29T00:25:35;9.70;1.00
1592;DHT22;789;51.612;7.510;2024-03-29T00:28:01;10.40;1.00
1592;DHT22;789;51.612;7.510;2024-03-29T00:30:27;9.20;1.00
1592;DHT22;789;51.612;7.510;2024-03-29T00:32:53;9.70;1.00
1592;DHT22;789;51.612;7.510;2024-03-29T00:35:20;9.70;1.00
1592;DHT22;789;51.612;7.510;2024-03-29T00:37:46;9.70;1.00
1592;DHT22;789;51.612;7.510;2024-03-29T00:40:12;9.70;1.00
1592;DHT22;789;51.612;7.510;2024-03-29T00:42:38;9.70;1.00
1592;DHT22;789;51.612;7.510;2024-03-29T00:45:05;9.70;1.00
1592;DHT22;789;51.612;7.510;2024-03-29T00:47:30;9.80;1.00
1592;DHT22;789;51.612;7.510;2024-03-29T00:49:56;9.80;1.00
1592;DHT22;789;51.612;7.510;2024-03-29T00:52:23;9.70;1.00
1592;DHT22;789;51.612;7.510;2024-03-29T00:54:49;9.80;1.00
1592;DHT22;789;51.612;7.510;2024-03-29T00:57:15;9.80;1.00
1592;DHT22;789;51.612;7.510;2024-03-29T00:59:41;9.80;1.00
1592;DHT22;789;51.612;7.510;2024-03-29T01:02:08;9.60;1.00
1592;DHT22;789;51.612;7.510;2024-03-29T01:04:33;9.70;1.00
1592;DHT22;789;51.612;7.510;2024-03-29T01:06:59;9.70;1.00
1592;DHT22;789;51.612;7.510;2024-03-29T01:09:26;9.80;1.00
1592;DHT22;789;51.612;7.510;2024-03-29T01:11:52;10.10;1.00
1592;DHT22;789;51.612;7.510;2024-03-29T01:14:18;9.70;1.00
1592;DHT22;789;51.612;7.510;2024-03-29T01:16:44;9.70;1.00
1592;DHT22;789;51.612;7.510;2024-03-29T01:19:09;9.70;1.00
1592;DHT22;789;51.612;7.510;2024-03-29T01:21:36;9.70;1.00
1592;DHT22;789;51.612;7.510;2024-03-29T01:24:01;9.70;1.00
1592;DHT22;789;51.612;7.510;2024-03-29T01:26:29;9.70;1.00
1592;DHT22;789;51.612;7.510;2024-03-29T01:28:55;9.70;1.00
1592;DHT22;789;51.612;7.510;2024-03-29T01:31:22;9.70;1.00
1592;DHT22;789;51.612;7.510;2024-03-29T01:33:48;10.10;1.00
1592;DHT22;789;51.612;7.510;2024-03-29T01:36:14;9.60;1.00
1592;DHT22;789;51.612;7.510;2024-03-29T01:38:39;9.60;1.00
1592;DHT22;789;51.612;7.510;2024-03-29T01:41:05;9.70;1.00
1592;DHT22;789;51.612;7.510;2024-03-29T01:43:32;9.70;1.00
1592;DHT22;789;51.612;7.510;2024-03-29T01:45:59;9.70;1.00
1592;DHT22;789;51.612;7.510;2024-03-29T01:48:26;9.70;1.00
1592;DHT22;789;51.612;7.510;2024-03-29T01:50:56;9.70;1.00
1592;DHT22;789;51.612;7.510;2024-03-29T01:53:24;9.70;1.00
1592;DHT22;789;51.612;7.510;2024-03-29T01:55:52;9.60;1.00
1592;DHT22;789;51.612;7.510;2024-03-29T01:58:20;9.70;1.00
1592;DHT22;789;51.612;7.510;2024-03-29T02:00:52;9.80;1.00
1592;DHT22;789;51.612;7.510;2024-03-29T02:03:19;9.80;1.00
1592;DHT22;789;51.612;7.510;2024-03-29T02:05:47;9.80;1.00
1592;DHT22;789;51.612;7.510;2024-03-29T02:08:14;9.80;1.00
1592;DHT22;789;51.612;7.510;2024-03-29T02:10:42;9.80;1.00
1592;DHT22;789;51.612;7.510;2024-03-29T02:13:09;10.10;1.00
1592;DHT22;789;51.612;7.510;2024-03-29T02:15:36;9.80;1.00
1592;DHT22;789;51.612;7.510;2024-03-29T02:18:05;9.80;1.00
1592;DHT22;789;51.612;7.510;2024-03-29T02:20:33;9.80;1.00
1592;DHT22;789;51.612;7.510;2024-03-29T02:23:06;9.80;1.00
1592;DHT22;789;51.612;7.510;2024-03-29T02:25:35;9.80;1.00
1592;DHT22;789;51.612;7.510;2024-03-29T02:28:02;9.80;1.00
1592;DHT22;789;51.612;7.510;2024-03-29T02:30:29;9.80;1.00
1592;DHT22;789;51.612;7.510;2024-03-29T02:32:57;10.40;1.00
1592;DHT22;789;51.612;7.510;2024-03-29T02:35:24;9.80;1.00
1592;DHT22;789;51.612;7.510;2024-03-29T02:37:50;10.20;1.00
1592;DHT22;789;51.612;7.510;2024-03-29T02:40:17;9.80;1.00
1592;DHT22;789;51.612;7.510;2024-03-29T02:42:47;10.40;1.00
1592;DHT22;789;51.612;7.510;2024-03-29T02:45:13;9.90;1.00
1592;DHT22;789;51.612;7.510;2024-03-29T02:47:39;9.90;1.00
1592;DHT22;789;51.612;7.510;2024-03-29T02:50:08;9.90;1.00
1592;DHT22;789;51.612;7.510;2024-03-29T02:52:34;10.00;1.00
1592;DHT22;789;51.612;7.510;2024-03-29T02:55:01;10.00;1.00
1592;DHT22;789;51.612;7.510;2024-03-29T02:57:27;10.00;1.00
1592;DHT22;789;51.612;7.510;2024-03-29T02:59:55;10.70;1.00
1592;DHT22;789;51.612;7.510;2024-03-29T03:02:20;10.00;1.00
1592;DHT22;789;51.612;7.510;2024-03-29T03:04:47;10.70;1.00
1592;DHT22;789;51.612;7.510;2024-03-29T03:07:13;10.60;1.00
1592;DHT22;789;51.612;7.510;2024-03-29T03:09:57;10.20;1.00
1592;DHT22;789;51.612;7.510;2024-03-29T03:12:41;10.20;1.00
1592;DHT22;789;51.612;7.510;2024-03-29T03:15:09;10.50;1.00
1592;DHT22;789;51.612;7.510;2024-03-29T03:17:35;10.30;1.00
1592;DHT22;789;51.612;7.510;2024-03-29T03:20:02;10.40;1.00
1592;DHT22;789;51.612;7.510;2024-03-29T03:22:30;10.40;1.00
1592;DHT22;789;51.612;7.510;2024-03-29T03:24:56;10.50;1.00
1592;DHT22;789;51.612;7.510;2024-03-29T03:27:22;10.60;1.00
1592;DHT22;789;51.612;7.510;2024-03-29T03:29:49;10.70;1.00
1592;DHT22;789;51.612;7.510;2024-03-29T03:32:16;10.80;1.00
1592;DHT22;789;51.612;7.510;2024-03-29T03:34:43;10.90;1.00
1592;DHT22;789;51.612;7.510;2024-03-29T03:37:09;10.90;1.00
1592;DHT22;789;51.612;7.510;2024-03-29T03:39:37;11.00;1.00
1592;DHT22;789;51.612;7.510;2024-03-29T03:42:03;11.00;1.00
1592;DHT22;789;51.612;7.510;2024-03-29T03:44:30;11.00;1.00
1592;DHT22;789;51.612;7.510;2024-03-29T03:46:56;11.00;1.00
1592;DHT22;789;51.612;7.510;2024-03-29T03:49:24;11.00;1.00
1592;DHT22;789;51.612;7.510;2024-03-29T03:51:49;10.90;1.00
1592;DHT22;789;51.612;7.510;2024-03-29T03:54:16;11.50;1.00
1592;DHT22;789;51.612;7.510;2024-03-29T03:56:42;10.80;1.00
1592;DHT22;789;51.612;7.510;2024-03-29T03:59:09;10.90;1.00
1592;DHT22;789;51.612;7.510;2024-03-29T04:01:35;10.80;1.00
1592;DHT22;789;51.612;7.510;2024-03-29T04:04:02;10.90;1.00
1592;DHT22;789;51.612;7.510;2024-03-29T04:06:29;10.90;1.00
1592;DHT22;789;51.612;7.510;2024-03-29T04:08:55;10.90;1.00
1592;DHT22;789;51.612;7.510;2024-03-29T04:11:21;10.90;1.00
1592;DHT22;789;51.612;7.510;2024-03-29T04:13:48;11.00;1.00
1592;DHT22;789;51.612;7.510;2024-03-29T04:16:14;10.90;1.00
1592;DHT22;789;51.612;7.510;2024-03-29T04:18:40;10.80;1.00
1592;DHT22;789;51.612;7.510;2024-03-29T04:21:06;10.80;1.00
1592;DHT22;789;51.612;7.510;2024-03-29T04:23:35;10.80;1.00
1592;DHT22;789;51.612;7.510;2024-03-29T04:26:02;10.70;1.00
1592;DHT22;789;51.612;7.510;2024-03-29T04:28:28;10.70;1.00
1592;DHT22;789;51.612;7.510;2024-03-29T04:30:55;10.60;1.00
1592;DHT22;789;51.612;7.510;2024-03-29T04:33:23;10.60;1.00
1592;DHT22;789;51.612;7.510;2024-03-29T04:35:54;10.60;1.00
1592;DHT22;789;51.612;7.510;2024-03-29T04:38:21;10.60;1.00
1592;DHT22;789;51.612;7.510;2024-03-29T04:40:51;10.60;1.00
1592;DHT22;789;51.612;7.510;2024-03-29T04:43:18;10.70;1.00
1592;DHT22;789;51.612;7.510;2024-03-29T04:45:45;10.60;1.00
1592;DHT22;789;51.612;7.510;2024-03-29T04:48:12;10.60;1.00
1592;DHT22;789;51.612;7.510;2024-03-29T04:50:39;10.60;1.00
1592;DHT22;789;51.612;7.510;2024-03-29T04:53:06;10.60;1.00
1592;DHT22;789;51.612;7.510;2024-03-29T04:55:33;10.50;1.00
1592;DHT22;789;51.612;7.510;2024-03-29T04:58:01;10.50;1.00
1592;DHT22;789;51.612;7.510;2024-03-29T05:00:28;10.50;1.00
1592;DHT22;789;51.612;7.510;2024-03-29T05:02:55;10.50;1.00
1592;DHT22;789;51.612;7.510;2024-03-29T05:05:22;10.40;1.00
1592;DHT22;789;51.612;7.510;2024-03-29T05:07:49;10.40;1.00
1592;DHT22;789;51.612;7.510;2024-03-29T05:10:16;10.30;1.00
1592;DHT22;789;51.612;7.510;2024-03-29T05:12:44;10.30;1.00
1592;DHT22;789;51.612;7.510;2024-03-29T05:15:11;10.40;1.00
1592;DHT22;789;51.612;7.510;2024-03-29T05:17:38;10.20;1.00
1592;DHT22;789;51.612;7.510;2024-03-29T05:20:07;9.70;1.00
1592;DHT22;789;51.612;7.510;2024-03-29T05:22:34;10.10;1.00
1592;DHT22;789;51.612;7.510;2024-03-29T05:25:01;10.00;1.00
1592;DHT22;789;51.612;7.510;2024-03-29T05:27:29;10.20;1.00
1592;DHT22;789;51.612;7.510;2024-03-29T05:29:55;10.00;1.00
1592;DHT22;789;51.612;7.510;2024-03-29T05:32:23;9.90;1.00
1592;DHT22;789;51.612;7.510;2024-03-29T05:34:50;9.90;1.00
1592;DHT22;789;51.612;7.510;2024-03-29T05:37:17;10.00;1.00
1592;DHT22;789;51.612;7.510;2024-03-29T05:39:44;9.90;1.00
1592;DHT22;789;51.612;7.510;2024-03-29T05:42:10;10.00;1.00
1592;DHT22;789;51.612;7.510;2024-03-29T05:44:37;10.00;1.00
1592;DHT22;789;51.612;7.510;2024-03-29T05:47:04;10.10;1.00
1592;DHT22;789;51.612;7.510;2024-03-29T05:49:32;10.10;1.00
1592;DHT22;789;51.612;7.510;2024-03-29T05:51:59;10.10;1.00
1592;DHT22;789;51.612;7.510;2024-03-29T05:54:26;10.40;1.00
1592;DHT22;789;51.612;7.510;2024-03-29T05:56:53;10.10;1.00
1592;DHT22;789;51.612;7.510;2024-03-29T05:59:20;10.20;1.00
1592;DHT22;789;51.612;7.510;2024-03-29T06:01:46;10.10;1.00
1592;DHT22;789;51.612;7.510;2024-03-29T06:04:13;10.20;1.00
1592;DHT22;789;51.612;7.510;2024-03-29T06:06:45;10.20;1.00
1592;DHT22;789;51.612;7.510;2024-03-29T06:09:12;10.20;1.00
1592;DHT22;789;51.612;7.510;2024-03-29T06:11:38;10.10;1.00
1592;DHT22;789;51.612;7.510;2024-03-29T06:14:05;10.10;1.00
1592;DHT22;789;51.612;7.510;2024-03-29T06:16:50;10.10;1.00
1592;DHT22;789;51.612;7.510;2024-03-29T06:19:34;10.00;1.00
1592;DHT22;789;51.612;7.510;2024-03-29T06:22:02;10.00;1.00
1592;DHT22;789;51.612;7.510;2024-03-29T06:24:29;10.00;1.00
1592;DHT22;789;51.612;7.510;2024-03-29T06:26:58;10.00;1.00
1592;DHT22;789;51.612;7.510;2024-03-29T06:29:24;10.00;1.00
1592;DHT22;789;51.612;7.510;2024-03-29T06:31:51;10.00;1.00
1592;DHT22;789;51.612;7.510;2024-03-29T06:34:18;10.30;1.00
1592;DHT22;789;51.612;7.510;2024-03-29T06:36:44;10.10;1.00
1592;DHT22;789;51.612;7.510;2024-03-29T06:39:12;9.90;1.00
1592;DHT22;789;51.612;7.510;2024-03-29T06:41:39;10.00;1.00
1592;DHT22;789;51.612;7.510;2024-03-29T06:44:06;9.90;1.00
1592;DHT22;789;51.612;7.510;2024-03-29T06:46:33;10.10;1.00
1592;DHT22;789;51.612;7.510;2024-03-29T06:49:00;10.00;1.00
1592;DHT22;789;51.612;7.510;2024-03-29T06:51:27;10.00;1.00
1592;DHT22;789;51.612;7.510;2024-03-29T06:53:54;10.00;1.00
1592;DHT22;789;51.612;7.510;2024-03-29T06:56:22;10.10;1.00
1592;DHT22;789;51.612;7.510;2024-03-29T06:58:48;10.10;1.00
1592;DHT22;789;51.612;7.510;2024-03-29T07:01:15;10.20;1.00
1592;DHT22;789;51.612;7.510;2024-03-29T07:03:42;10.20;1.00
1592;DHT22;789;51.612;7.510;2024-03-29T07:06:09;10.70;1.00
1592;DHT22;789;51.612;7.510;2024-03-29T07:08:36;10.30;1.00
1592;DHT22;789;51.612;7.510;2024-03-29T07:11:03;10.20;1.00
1592;DHT22;789;51.612;7.510;2024-03-29T07:13:31;10.20;1.00
1592;DHT22;789;51.612;7.510;2024-03-29T07:15:58;10.20;1.00
1592;DHT22;789;51.612;7.510;2024-03-29T07:18:25;10.20;1.00
1592;DHT22;789;51.612;7.510;2024-03-29T07:20:52;10.30;1.00
1592;DHT22;789;51.612;7.510;2024-03-29T07:23:19;10.30;1.00
1592;DHT22;789;51.612;7.510;2024-03-29T07:25:56;10.70;1.00
1592;DHT22;789;51.612;7.510;2024-03-29T07:28:23;10.30;1.00
1592;DHT22;789;51.612;7.510;2024-03-29T07:30:51;10.60;1.00
1592;DHT22;789;51.612;7.510;2024-03-29T07:33:18;10.20;1.00
1592;DHT22;789;51.612;7.510;2024-03-29T07:35:46;10.60;1.00
1592;DHT22;789;51.612;7.510;2024-03-29T07:38:14;10.30;1.00
1592;DHT22;789;51.612;7.510;2024-03-29T07:40:42;10.30;1.00
1592;DHT22;789;51.612;7.510;2024-03-29T07:43:09;10.40;1.00
1592;DHT22;789;51.612;7.510;2024-03-29T07:45:39;10.50;1.00
1592;DHT22;789;51.612;7.510;2024-03-29T07:48:09;10.60;1.00
1592;DHT22;789;51.612;7.510;2024-03-29T07:50:36;10.50;1.00
1592;DHT22;789;51.612;7.510;2024-03-29T07:53:03;11.10;1.00
1592;DHT22;789;51.612;7.510;2024-03-29T07:55:30;10.40;1.00
1592;DHT22;789;51.612;7.510;2024-03-29T07:57:56;10.40;1.00
1592;DHT22;789;51.612;7.510;2024-03-29T08:00:24;10.40;1.00
1592;DHT22;789;51.612;7.510;2024-03-29T08:02:51;10.50;1.00
1592;DHT22;789;51.612;7.510;2024-03-29T08:05:20;11.10;1.00
1592;DHT22;789;51.612;7.510;2024-03-29T08:07:47;10.60;1.00
1592;DHT22;789;51.612;7.510;2024-03-29T08:10:14;10.60;1.00
1592;DHT22;789;51.612;7.510;2024-03-29T08:12:40;10.70;1.00
1592;DHT22;789;51.612;7.510;2024-03-29T08:15:07;10.60;1.00
1592;DHT22;789;51.612;7.510;2024-03-29T08:17:35;10.60;1.00
1592;DHT22;789;51.612;7.510;2024-03-29T08:20:01;10.70;1.00
1592;DHT22;789;51.612;7.510;2024-03-29T08:22:30;10.70;1.00
1592;DHT22;789;51.612;7.510;2024-03-29T08:24:58;11.00;1.00
1592;DHT22;789;51.612;7.510;2024-03-29T08:27:26;10.90;1.00
1592;DHT22;789;51.612;7.510;2024-03-29T08:29:53;10.90;1.00
1592;DHT22;789;51.612;7.510;2024-03-29T08:32:19;10.90;1.00
1592;DHT22;789;51.612;7.510;2024-03-29T08:34:46;10.90;1.00
1592;DHT22;789;51.612;7.510;2024-03-29T08:37:13;11.00;1.00
1592;DHT22;789;51.612;7.510;2024-03-29T08:39:41;11.00;1.00
1592;DHT22;789;51.612;7.510;2024-03-29T08:42:08;11.00;1.00
1592;DHT22;789;51.612;7.510;2024-03-29T08:44:37;11.10;1.00
1592;DHT22;789;51.612;7.510;2024-03-29T08:47:05;11.10;1.00
1592;DHT22;789;51.612;7.510;2024-03-29T08:49:31;11.20;1.00
1592;DHT22;789;51.612;7.510;2024-03-29T08:51:58;11.20;1.00
1592;DHT22;789;51.612;7.510;2024-03-29T08:54:30;11.30;1.00
1592;DHT22;789;51.612;7.510;2024-03-29T08:56:59;11.30;1.00
1592;DHT22;789;51.612;7.510;2024-03-29T08:59:27;11.50;1.00
1592;DHT22;789;51.612;7.510;2024-03-29T09:01:54;11.70;1.00
1592;DHT22;789;51.612;7.510;2024-03-29T09:04:21;12.10;1.00
1592;DHT22;789;51.612;7.510;2024-03-29T09:06:50;11.60;1.00
1592;DHT22;789;51.612;7.510;2024-03-29T09:09:18;11.70;1.00
1592;DHT22;789;51.612;7.510;2024-03-29T09:11:44;11.80;1.00
1592;DHT22;789;51.612;7.510;2024-03-29T09:14:13;12.50;1.00
1592;DHT22;789;51.612;7.510;2024-03-29T09:16:39;11.80;1.00
1592;DHT22;789;51.612;7.510;2024-03-29T09:19:06;11.80;1.00
1592;DHT22;789;51.612;7.510;2024-03-29T09:21:33;11.70;1.00
1592;DHT22;789;51.612;7.510;2024-03-29T09:24:00;11.70;1.00
1592;DHT22;789;51.612;7.510;2024-03-29T09:26:27;11.80;1.00
1592;DHT22;789;51.612;7.510;2024-03-29T09:28:54;11.90;1.00
1592;DHT22;789;51.612;7.510;2024-03-29T09:31:22;12.10;1.00
1592;DHT22;789;51.612;7.510;2024-03-29T09:33:49;12.90;1.00
1592;DHT22;789;51.612;7.510;2024-03-29T09:36:21;12.80;1.00
1592;DHT22;789;51.612;7.510;2024-03-29T09:38:48;13.00;1.00
1592;DHT22;789;51.612;7.510;2024-03-29T09:41:16;13.40;1.00
1592;DHT22;789;51.612;7.510;2024-03-29T09:43:44;12.90;1.00
1592;DHT22;789;51.612;7.510;2024-03-29T09:46:11;12.80;1.00
1592;DHT22;789;51.612;7.510;2024-03-29T09:48:40;12.80;1.00
1592;DHT22;789;51.612;7.510;2024-03-29T09:51:12;13.10;1.00
1592;DHT22;789;51.612;7.510;2024-03-29T09:53:42;13.60;1.00
1592;DHT22;789;51.612;7.510;2024-03-29T09:56:10;13.20;1.00
1592;DHT22;789;51.612;7.510;2024-03-29T09:58:37;13.20;1.00
1592;DHT22;789;51.612;7.510;2024-03-29T10:01:07;13.20;1.00
1592;DHT22;789;51.612;7.510;2024-03-29T10:03:40;13.20;1.00
1592;DHT22;789;51.612;7.510;2024-03-29T10:06:09;13.20;1.00
1592;DHT22;789;51.612;7.510;2024-03-29T10:08:38;13.30;1.00
1592;DHT22;789;51.612;7.510;2024-03-29T10:11:05;13.60;1.00
1592;DHT22;789;51.612;7.510;2024-03-29T10:13:32;13.60;1.00
1592;DHT22;789;51.612;7.510;2024-03-29T10:16:00;14.40;1.00
1592;DHT22;789;51.612;7.510;2024-03-29T10:18:29;14.00;1.00
1592;DHT22;789;51.612;7.510;2024-03-29T10:21:01;13.80;1.00
1592;DHT22;789;51.612;7.510;2024-03-29T10:23:29;13.90;1.00
1592;DHT22;789;51.612;7.510;2024-03-29T10:25:56;13.70;1.00
1592;DHT22;789;51.612;7.510;2024-03-29T10:28:23;13.80;1.00
1592;DHT22;789;51.612;7.510;2024-03-29T10:30:50;13.80;1.00
1592;DHT22;789;51.612;7.510;2024-03-29T10:33:17;13.90;1.00
1592;DHT22;789;51.612;7.510;2024-03-29T10:35:44;14.50;1.00
1592;DHT22;789;51.612;7.510;2024-03-29T10:38:12;14.10;1.00
1592;DHT22;789;51.612;7.510;2024-03-29T10:40:40;14.10;1.00
1592;DHT22;789;51.612;7.510;2024-03-29T10:43:08;14.20;1.00
1592;DHT22;789;51.612;7.510;2024-03-29T10:45:38;14.30;1.00
1592;DHT22;789;51.612;7.510;2024-03-29T10:48:06;14.30;1.00
1592;DHT22;789;51.612;7.510;2024-03-29T10:50:35;14.30;1.00
1592;DHT22;789;51.612;7.510;2024-03-29T10:53:03;14.30;1.00
1592;DHT22;789;51.612;7.510;2024-03-29T10:55:33;14.30;1.00
1592;DHT22;789;51.612;7.510;2024-03-29T10:58:00;14.20;1.00
1592;DHT22;789;51.612;7.510;2024-03-29T11:00:29;14.10;1.00
1592;DHT22;789;51.612;7.510;2024-03-29T11:03:02;14.60;1.00
1592;DHT22;789;51.612;7.510;2024-03-29T11:05:32;14.60;1.00
1592;DHT22;789;51.612;7.510;2024-03-29T11:08:01;14.20;1.00
1592;DHT22;789;51.612;7.510;2024-03-29T11:10:36;14.30;1.00
1592;DHT22;789;51.612;7.510;2024-03-29T11:13:11;14.30;1.00
1592;DHT22;789;51.612;7.510;2024-03-29T11:15:41;14.30;1.00
1592;DHT22;789;51.612;7.510;2024-03-29T11:18:08;14.40;1.00
1592;DHT22;789;51.612;7.510;2024-03-29T11:20:36;14.60;1.00
1592;DHT22;789;51.612;7.510;2024-03-29T11:23:09;14.60;1.00
1592;DHT22;789;51.612;7.510;2024-03-29T11:25:41;14.60;1.00
1592;DHT22;789;51.612;7.510;2024-03-29T11:28:11;14.90;1.00
1592;DHT22;789;51.612;7.510;2024-03-29T11:30:42;15.20;1.00
1592;DHT22;789;51.612;7.510;2024-03-29T11:33:29;15.60;1.00
1592;DHT22;789;51.612;7.510;2024-03-29T11:35:57;15.40;1.00
1592;DHT22;789;51.612;7.510;2024-03-29T11:38:31;15.40;1.00
1592;DHT22;789;51.612;7.510;2024-03-29T11:41:09;15.30;1.00
1592;DHT22;789;51.612;7.510;2024-03-29T11:43:43;15.20;1.00
1592;DHT22;789;51.612;7.510;2024-03-29T11:46:11;15.20;1.00
1592;DHT22;789;51.612;7.510;2024-03-29T11:48:38;15.30;1.00
1592;DHT22;789;51.612;7.510;2024-03-29T11:51:07;15.90;1.00
1592;DHT22;789;51.612;7.510;2024-03-29T11:53:35;15.50;1.00
1592;DHT22;789;51.612;7.510;2024-03-29T11:56:04;15.70;1.00
1592;DHT22;789;51.612;7.510;2024-03-29T11:58:32;16.30;1.00
1592;DHT22;789;51.612;7.510;2024-03-29T12:01:00;16.80;1.00
1592;DHT22;789;51.612;7.510;2024-03-29T12:03:29;17.30;1.00
1592;DHT22;789;51.612;7.510;2024-03-29T12:05:56;17.70;1.00
1592;DHT22;789;51.612;7.510;2024-03-29T12:08:28;17.80;1.00
1592;DHT22;789;51.612;7.510;2024-03-29T12:10:55;18.00;1.00
1592;DHT22;789;51.612;7.510;2024-03-29T12:13:29;17.40;1.00
1592;DHT22;789;51.612;7.510;2024-03-29T12:15:56;17.50;1.00
1592;DHT22;789;51.612;7.510;2024-03-29T12:18:25;17.70;1.00
1592;DHT22;789;51.612;7.510;2024-03-29T12:20:53;17.50;1.00
1592;DHT22;789;51.612;7.510;2024-03-29T12:23:21;17.50;1.00
1592;DHT22;789;51.612;7.510;2024-03-29T12:25:50;17.60;1.00
1592;DHT22;789;51.612;7.510;2024-03-29T12:28:17;17.80;1.00
1592;DHT22;789;51.612;7.510;2024-03-29T12:30:46;17.10;1.00
1592;DHT22;789;51.612;7.510;2024-03-29T12:33:15;17.30;1.00
1592;DHT22;789;51.612;7.510;2024-03-29T12:35:42;16.80;1.00
1592;DHT22;789;51.612;7.510;2024-03-29T12:38:12;16.60;1.00
1592;DHT22;789;51.612;7.510;2024-03-29T12:40:41;16.30;1.00
1592;DHT22;789;51.612;7.510;2024-03-29T12:43:09;16.10;1.00
1592;DHT22;789;51.612;7.510;2024-03-29T12:45:38;16.10;1.00
1592;DHT22;789;51.612;7.510;2024-03-29T12:48:11;16.10;1.00
1592;DHT22;789;51.612;7.510;2024-03-29T12:50:40;16.10;1.00
1592;DHT22;789;51.612;7.510;2024-03-29T12:53:08;16.10;1.00
1592;DHT22;789;51.612;7.510;2024-03-29T12:55:37;16.00;1.00
1592;DHT22;789;51.612;7.510;2024-03-29T12:58:10;16.10;1.00
1592;DHT22;789;51.612;7.510;2024-03-29T13:00:37;16.00;1.00
1592;DHT22;789;51.612;7.510;2024-03-29T13:03:04;16.10;1.00
1592;DHT22;789;51.612;7.510;2024-03-29T13:05:34;16.20;1.00
1592;DHT22;789;51.612;7.510;2024-03-29T13:08:05;16.10;1.00
1592;DHT22;789;51.612;7.510;2024-03-29T13:10:34;16.20;1.00
1592;DHT22;789;51.612;7.510;2024-03-29T13:13:08;16.00;1.00
1592;DHT22;789;51.612;7.510;2024-03-29T13:15:36;16.30;1.00
1592;DHT22;789;51.612;7.510;2024-03-29T13:18:04;16.00;1.00
1592;DHT22;789;51.612;7.510;2024-03-29T13:20:35;15.90;1.00
1592;DHT22;789;51.612;7.510;2024-03-29T13:23:06;15.80;1.00
1592;DHT22;789;51.612;7.510;2024-03-29T13:25:33;15.80;1.00
1592;DHT22;789;51.612;7.510;2024-03-29T13:28:00;16.00;1.00
1592;DHT22;789;51.612;7.510;2024-03-29T13:30:27;15.90;1.00
1592;DHT22;789;51.612;7.510;2024-03-29T13:32:54;15.00;1.00
1592;DHT22;789;51.612;7.510;2024-03-29T13:35:21;15.00;1.00
1592;DHT22;789;51.612;7.510;2024-03-29T13:37:50;14.60;1.00
1592;DHT22;789;51.612;7.510;2024-03-29T13:40:20;15.10;1.00
1592;DHT22;789;51.612;7.510;2024-03-29T13:42:47;15.10;1.00
1592;DHT22;789;51.612;7.510;2024-03-29T13:45:15;14.60;1.00
1592;DHT22;789;51.612;7.510;2024-03-29T13:47:44;15.10;1.00
1592;DHT22;789;51.612;7.510;2024-03-29T13:50:12;14.80;1.00
1592;DHT22;789;51.612;7.510;2024-03-29T13:52:41;15.00;1.00
1592;DHT22;789;51.612;7.510;2024-03-29T13:55:10;15.00;1.00
1592;DHT22;789;51.612;7.510;2024-03-29T13:57:36;14.90;1.00
1592;DHT22;789;51.612;7.510;2024-03-29T14:00:04;15.00;1.00
1592;DHT22;789;51.612;7.510;2024-03-29T14:02:32;15.00;1.00
1592;DHT22;789;51.612;7.510;2024-03-29T14:05:00;14.80;1.00
1592;DHT22;789;51.612;7.510;2024-03-29T14:07:27;14.70;1.00
1592;DHT22;789;51.612;7.510;2024-03-29T14:09:54;14.80;1.00
1592;DHT22;789;51.612;7.510;2024-03-29T14:12:22;14.70;1.00
1592;DHT22;789;51.612;7.510;2024-03-29T14:14:51;14.70;1.00
1592;DHT22;789;51.612;7.510;2024-03-29T14:17:18;14.60;1.00
1592;DHT22;789;51.612;7.510;2024-03-29T14:19:47;14.70;1.00
1592;DHT22;789;51.612;7.510;2024-03-29T14:22:14;14.60;1.00
1592;DHT22;789;51.612;7.510;2024-03-29T14:24:44;14.60;1.00
1592;DHT22;789;51.612;7.510;2024-03-29T14:27:11;14.60;1.00
1592;DHT22;789;51.612;7.510;2024-03-29T14:29:42;14.80;1.00
1592;DHT22;789;51.612;7.510;2024-03-29T14:32:10;14.70;1.00
1592;DHT22;789;51.612;7.510;2024-03-29T14:34:37;14.70;1.00
1592;DHT22;789;51.612;7.510;2024-03-29T14:37:10;14.80;1.00
1592;DHT22;789;51.612;7.510;2024-03-29T14:39:38;14.80;1.00
1592;DHT22;789;51.612;7.510;2024-03-29T14:42:07;14.90;1.00
1592;DHT22;789;51.612;7.510;2024-03-29T14:44:37;14.90;1.00
1592;DHT22;789;51.612;7.510;2024-03-29T14:47:05;14.90;1.00
1592;DHT22;789;51.612;7.510;2024-03-29T14:49:32;15.10;1.00
1592;DHT22;789;51.612;7.510;2024-03-29T14:51:59;15.40;1.00
1592;DHT22;789;51.612;7.510;2024-03-29T14:54:26;15.00;1.00
1592;DHT22;789;51.612;7.510;2024-03-29T14:56:53;15.10;1.00
1592;DHT22;789;51.612;7.510;2024-03-29T14:59:19;15.40;1.00
1592;DHT22;789;51.612;7.510;2024-03-29T15:01:46;15.10;1.00
1592;DHT22;789;51.612;7.510;2024-03-29T15:04:14;15.10;1.00
1592;DHT22;789;51.612;7.510;2024-03-29T15:06:41;15.10;1.00
1592;DHT22;789;51.612;7.510;2024-03-29T15:09:08;15.00;1.00
1592;DHT22;789;51.612;7.510;2024-03-29T15:11:35;15.10;1.00
1592;DHT22;789;51.612;7.510;2024-03-29T15:14:03;15.20;1.00
1592;DHT22;789;51.612;7.510;2024-03-29T15:16:30;15.30;1.00
1592;DHT22;789;51.612;7.510;2024-03-29T15:18:57;15.40;1.00
1592;DHT22;789;51.612;7.510;2024-03-29T15:21:25;15.40;1.00
1592;DHT22;789;51.612;7.510;2024-03-29T15:23:53;15.40;1.00
1592;DHT22;789;51.612;7.510;2024-03-29T15:26:20;15.40;1.00
1592;DHT22;789;51.612;7.510;2024-03-29T15:28:47;15.30;1.00
1592;DHT22;789;51.612;7.510;2024-03-29T15:31:35;15.60;1.00
1592;DHT22;789;51.612;7.510;2024-03-29T15:34:05;15.30;1.00
1592;DHT22;789;51.612;7.510;2024-03-29T15:36:34;15.70;1.00
1592;DHT22;789;51.612;7.510;2024-03-29T15:39:03;15.90;1.00
1592;DHT22;789;51.612;7.510;2024-03-29T15:41:34;15.30;1.00
1592;DHT22;789;51.612;7.510;2024-03-29T15:44:02;15.30;1.00
1592;DHT22;789;51.612;7.510;2024-03-29T15:46:30;15.30;1.00
1592;DHT22;789;51.612;7.510;2024-03-29T15:49:00;15.20;1.00
1592;DHT22;789;51.612;7.510;2024-03-29T15:51:28;15.50;1.00
1592;DHT22;789;51.612;7.510;2024-03-29T15:53:56;15.10;1.00
1592;DHT22;789;51.612;7.510;2024-03-29T15:56:26;15.10;1.00
1592;DHT22;789;51.612;7.510;2024-03-29T15:58:54;15.10;1.00
1592;DHT22;789;51.612;7.510;2024-03-29T16:01:23;15.00;1.00
1592;DHT22;789;51.612;7.510;2024-03-29T16:03:50;15.00;1.00
1592;DHT22;789;51.612;7.510;2024-03-29T16:06:19;15.00;1.00
1592;DHT22;789;51.612;7.510;2024-03-29T16:08:46;15.00;1.00
1592;DHT22;789;51.612;7.510;2024-03-29T16:11:14;14.90;1.00
1592;DHT22;789;51.612;7.510;2024-03-29T16:13:41;14.80;1.00
1592;DHT22;789;51.612;7.510;2024-03-29T16:16:10;14.80;1.00
1592;DHT22;789;51.612;7.510;2024-03-29T16:18:37;14.70;1.00
1592;DHT22;789;51.612;7.510;2024-03-29T16:21:03;14.70;1.00
1592;DHT22;789;51.612;7.510;2024-03-29T16:23:30;14.70;1.00
1592;DHT22;789;51.612;7.510;2024-03-29T16:25:59;15.20;1.00
1592;DHT22;789;51.612;7.510;2024-03-29T16:28:27;14.60;1.00
1592;DHT22;789;51.612;7.510;2024-03-29T16:30:53;14.60;1.00
1592;DHT22;789;51.612;7.510;2024-03-29T16:33:20;14.50;1.00
1592;DHT22;789;51.612;7.510;2024-03-29T16:35:46;14.60;1.00
1592;DHT22;789;51.612;7.510;2024-03-29T16:38:12;14.60;1.00
1592;DHT22;789;51.612;7.510;2024-03-29T16:40:39;15.20;1.00